Time;durP1;ratioP1;P1;durP2;ratioP2;P2;SDS_P1;SDS_P2;PMS_P1;PMS_P2;Temp;Humidity;BMP_temperature;BMP_pressure;BME280_temperature;BME280_humidity;BME280_pressure;Samples;Min_cycle;Max_cycle;Signal;HPM_P1;HPM_P2
2024/01/12 00:00:33;;;;;;;57.97;19.85;;;-5.70;99.90;;;;;;5049693;28;20075;-73
2024/01/12 00:02:58;;;;;;;60.13;21.50;;;-5.90;99.90;;;;;;5032471;28;20037;-74
2024/01/12 00:05:25;;;;;;;55.33;18.15;;;-6.10;99.90;;;;;;5050990;28;20083;-74
2024/01/12 00:07:50;;;;;;;58.30;19.55;;;-6.20;99.90;;;;;;5051237;28;20184;-74
2024/01/12 00:10:16;;;;;;;60.08;20.70;;;-6.40;99.90;;;;;;5051242;28;20259;-73
2024/01/12 00:12:42;;;;;;;62.50;22.90;;;-6.40;99.90;;;;;;5050523;28;20446;-74
2024/01/12 00:15:08;;;;;;;56.60;21.42;;;-6.50;99.90;;;;;;5050892;28;20032;-75
2024/01/12 00:17:34;;;;;;;75.97;22.50;;;-6.50;99.90;;;;;;5050850;28;20021;-74
2024/01/12 00:20:00;;;;;;;62.28;19.25;;;-6.40;99.90;;;;;;5032149;28;20051;-73
2024/01/12 00:22:25;;;;;;;70.63;24.23;;;-6.20;99.90;;;;;;5030841;28;20049;-73
2024/01/12 00:24:52;;;;;;;60.17;20.38;;;-6.10;99.90;;;;;;5049080;28;20118;-74
2024/01/12 00:27:18;;;;;;;64.53;22.10;;;-6.20;99.90;;;;;;5048535;28;20025;-73
2024/01/12 00:29:43;;;;;;;67.50;19.40;;;-6.10;99.90;;;;;;5048938;28;20537;-73
2024/01/12 00:32:09;;;;;;;61.60;18.30;;;-6.10;99.90;;;;;;5048943;28;20107;-73
2024/01/12 00:34:35;;;;;;;50.80;18.48;;;-6.20;99.90;;;;;;5049840;28;20048;-73
2024/01/12 00:37:00;;;;;;;56.47;17.45;;;-6.20;99.90;;;;;;5050680;28;20025;-74
2024/01/12 00:39:26;;;;;;;69.75;24.30;;;-6.30;99.90;;;;;;5050693;28;20394;-73
2024/01/12 00:41:52;;;;;;;64.22;20.90;;;-6.40;99.90;;;;;;5050467;28;20017;-73
2024/01/12 00:44:18;;;;;;;61.22;19.17;;;-6.50;99.90;;;;;;5050318;28;20514;-74
2024/01/12 00:46:50;;;;;;;56.40;18.15;;;-6.40;99.90;;;;;;5034031;28;20460;-72
2024/01/12 00:49:20;;;;;;;51.38;18.85;;;-6.70;99.90;;;;;;5051416;28;20028;-75
2024/01/12 00:51:45;;;;;;;;;;;-6.70;99.90;;;;;;5050665;28;20079;-73
2024/01/12 00:54:11;;;;;;;67.07;19.77;;;-6.80;99.90;;;;;;5050091;28;19909;-74
2024/01/12 00:56:37;;;;;;;67.22;17.95;;;-6.90;99.90;;;;;;5050131;28;20025;-74
2024/01/12 00:59:03;;;;;;;54.65;20.13;;;-6.90;99.90;;;;;;5049982;28;20378;-76
2024/01/12 01:01:29;;;;;;;59.17;20.70;;;-6.90;99.90;;;;;;5050058;28;20119;-73
2024/01/12 01:03:55;;;;;;;65.10;20.10;;;-7.00;99.90;;;;;;5050411;28;20557;-75
2024/01/12 01:06:21;;;;;;;52.90;18.80;;;-6.90;99.90;;;;;;5032043;28;20051;-73
2024/01/12 01:08:48;;;;;;;59.03;17.92;;;-6.80;99.90;;;;;;5031965;28;20099;-72
2024/01/12 01:11:16;;;;;;;55.78;18.88;;;-6.80;99.90;;;;;;5050027;28;20024;-76
2024/01/12 01:13:42;;;;;;;60.00;17.83;;;-7.00;99.90;;;;;;5032031;28;20041;-75
2024/01/12 01:16:09;;;;;;;59.38;18.08;;;-6.90;99.90;;;;;;5048784;28;20430;-77
2024/01/12 01:18:35;;;;;;;50.58;17.95;;;-7.00;99.90;;;;;;5050305;28;20029;-76
2024/01/12 01:21:01;;;;;;;51.58;18.67;;;-6.90;99.90;;;;;;5032133;28;20390;-77
2024/01/12 01:23:26;;;;;;;53.88;17.23;;;-6.90;99.90;;;;;;5048422;28;20053;-74
2024/01/12 01:25:53;;;;;;;54.22;18.50;;;-7.00;99.90;;;;;;5049668;28;20027;-76
2024/01/12 01:28:19;;;;;;;53.75;18.95;;;-7.10;99.90;;;;;;5049105;28;20059;-76
2024/01/12 01:30:45;;;;;;;60.33;16.55;;;-7.20;99.90;;;;;;5049869;28;20458;-76
2024/01/12 01:33:11;;;;;;;53.22;17.95;;;-7.20;99.90;;;;;;5031865;28;20032;-76
2024/01/12 01:35:36;;;;;;;53.30;17.27;;;-7.20;99.90;;;;;;5049818;28;20082;-77
2024/01/12 01:38:02;;;;;;;52.50;18.77;;;-7.20;99.90;;;;;;5032172;28;20029;-76
2024/01/12 01:40:28;;;;;;;55.80;17.70;;;-7.20;99.90;;;;;;5050188;28;20091;-76
2024/01/12 01:42:55;;;;;;;54.97;17.00;;;-7.20;99.90;;;;;;5031245;28;20049;-77
2024/01/12 01:45:20;;;;;;;52.97;18.63;;;-7.30;99.90;;;;;;5049822;28;20075;-76
2024/01/12 01:47:47;;;;;;;55.17;19.63;;;-7.30;99.90;;;;;;5049969;28;20450;-77
2024/01/12 01:50:14;;;;;;;62.38;18.60;;;-7.10;99.90;;;;;;5033527;28;20036;-75
2024/01/12 01:52:41;;;;;;;62.33;20.13;;;-7.10;99.90;;;;;;5031642;28;20075;-76
2024/01/12 01:55:08;;;;;;;50.60;18.38;;;-7.20;99.90;;;;;;5031690;28;20021;-76
2024/01/12 01:57:35;;;;;;;56.28;18.38;;;-7.30;99.90;;;;;;5031195;28;20029;-76
2024/01/12 02:00:02;;;;;;;59.85;18.80;;;-7.30;99.90;;;;;;5031451;28;20374;-75
2024/01/12 02:02:28;;;;;;;52.35;17.17;;;-7.40;99.90;;;;;;5033245;28;20143;-76
2024/01/12 02:04:57;;;;;;;51.35;16.88;;;-7.40;99.90;;;;;;5051320;28;20048;-77
2024/01/12 02:07:23;;;;;;;57.55;17.60;;;-7.40;99.90;;;;;;5053413;28;20021;-74
2024/01/12 02:09:49;;;;;;;56.03;18.25;;;-7.50;99.90;;;;;;5050881;28;20032;-76
2024/01/12 02:12:15;;;;;;;59.88;19.08;;;-7.70;99.90;;;;;;5033623;28;20608;-76
2024/01/12 02:14:40;;;;;;;52.20;16.90;;;-7.60;99.90;;;;;;5035190;28;20209;-74
2024/01/12 02:17:07;;;;;;;56.10;18.00;;;-7.60;99.90;;;;;;5048731;28;20465;-76
2024/01/12 02:19:32;;;;;;;50.83;17.95;;;-7.50;99.90;;;;;;5052910;28;20453;-77
2024/01/12 02:21:58;;;;;;;67.60;19.88;;;-7.50;99.90;;;;;;5054309;28;20045;-76
2024/01/12 02:24:24;;;;;;;52.25;17.52;;;-7.60;99.90;;;;;;5049167;28;20041;-77
2024/01/12 02:26:49;;;;;;;49.40;17.70;;;-7.60;99.90;;;;;;5048618;28;20147;-77
2024/01/12 02:29:15;;;;;;;50.35;18.17;;;-7.70;99.90;;;;;;5031168;28;20033;-76
2024/01/12 02:31:41;;;;;;;54.47;17.58;;;-7.80;99.90;;;;;;5048766;28;20029;-77
2024/01/12 02:34:07;;;;;;;57.78;18.23;;;-7.80;99.90;;;;;;5031668;28;20025;-75
2024/01/12 02:36:32;;;;;;;50.88;16.98;;;-7.80;99.90;;;;;;5050860;28;20028;-76
2024/01/12 02:38:58;;;;;;;53.38;17.13;;;-7.80;99.90;;;;;;5051982;28;20033;-75
2024/01/12 02:41:23;;;;;;;52.90;18.33;;;-7.90;99.90;;;;;;5050342;28;20029;-75
2024/01/12 02:43:49;;;;;;;58.42;17.67;;;-7.80;99.90;;;;;;5037024;28;20041;-76
2024/01/12 02:46:15;;;;;;;51.47;18.27;;;-7.60;99.90;;;;;;5031766;28;20027;-76
2024/01/12 02:48:40;;;;;;;51.40;18.45;;;-7.70;99.90;;;;;;5034327;28;20603;-77
2024/01/12 02:51:06;;;;;;;61.42;19.30;;;-6.90;99.90;;;;;;5051933;28;20507;-77
2024/01/12 02:53:32;;;;;;;61.58;19.95;;;-6.90;99.90;;;;;;5026082;28;20033;-75
2024/01/12 02:55:58;;;;;;;47.00;17.05;;;-7.70;99.90;;;;;;5031477;28;20021;-77
2024/01/12 02:58:25;;;;;;;69.10;20.67;;;-7.70;99.90;;;;;;5035780;28;21029;-77
2024/01/12 03:00:52;;;;;;;57.08;16.83;;;-7.60;99.90;;;;;;5053295;28;20492;-78
2024/01/12 03:03:18;;;;;;;54.95;16.77;;;-7.70;99.90;;;;;;5053701;28;20044;-77
2024/01/12 03:05:43;;;;;;;49.17;15.65;;;-7.80;99.90;;;;;;5052750;28;20265;-77
2024/01/12 03:08:10;;;;;;;55.22;17.50;;;-7.90;99.90;;;;;;5035097;28;20269;-77
2024/01/12 03:10:36;;;;;;;52.08;17.25;;;-8.00;99.90;;;;;;5052033;28;20108;-77
2024/01/12 03:13:02;;;;;;;59.72;17.80;;;-7.90;99.90;;;;;;5052683;28;20100;-77
2024/01/12 03:15:28;;;;;;;56.92;18.23;;;-8.00;99.90;;;;;;5053042;28;20029;-77
2024/01/12 03:17:55;;;;;;;54.78;17.33;;;-7.80;99.90;;;;;;5052056;28;20029;-77
2024/01/12 03:20:21;;;;;;;67.88;20.40;;;-7.70;99.90;;;;;;5052974;28;20039;-77
2024/01/12 03:22:47;;;;;;;54.00;17.63;;;-7.70;99.90;;;;;;5053032;28;20036;-78
2024/01/12 03:25:13;;;;;;;59.05;17.88;;;-7.70;99.90;;;;;;5053093;28;20120;-77
2024/01/12 03:27:39;;;;;;;57.92;18.98;;;-7.80;99.90;;;;;;5035541;28;20029;-77
2024/01/12 03:30:05;;;;;;;54.45;17.65;;;-7.90;99.90;;;;;;5051567;28;20036;-78
2024/01/12 03:32:33;;;;;;;59.00;18.40;;;-8.10;99.90;;;;;;5034441;28;20021;-76
2024/01/12 03:34:59;;;;;;;52.13;16.95;;;-8.00;99.90;;;;;;5052982;28;20032;-76
2024/01/12 03:37:25;;;;;;;51.80;17.17;;;-7.90;99.90;;;;;;5036285;28;20552;-77
2024/01/12 03:39:51;;;;;;;53.22;18.27;;;-8.00;99.90;;;;;;5052429;28;20083;-77
2024/01/12 03:42:17;;;;;;;56.92;17.67;;;-8.00;99.90;;;;;;5052526;28;20025;-79
2024/01/12 03:44:42;;;;;;;68.75;21.45;;;-8.00;99.90;;;;;;5052430;28;20056;-78
2024/01/12 03:47:08;;;;;;;54.53;18.25;;;-8.00;99.90;;;;;;5035276;28;20090;-78
2024/01/12 03:49:34;;;;;;;49.58;14.93;;;-8.00;99.90;;;;;;5053092;28;20029;-78
2024/01/12 03:52:00;;;;;;;58.20;16.58;;;-8.00;99.90;;;;;;5051964;28;20029;-77
2024/01/12 03:54:25;;;;;;;52.70;17.20;;;-8.00;99.90;;;;;;5039011;28;20029;-77
2024/01/12 03:56:52;;;;;;;56.88;16.50;;;-8.00;99.90;;;;;;5034294;28;20108;-77
2024/01/12 03:59:19;;;;;;;60.72;17.95;;;-8.00;99.90;;;;;;5052282;28;20021;-77
2024/01/12 04:01:45;;;;;;;62.60;16.70;;;-8.10;99.90;;;;;;5053601;28;20100;-77
2024/01/12 04:04:11;;;;;;;58.42;17.42;;;-8.10;99.90;;;;;;5033873;28;20045;-77
2024/01/12 04:06:38;;;;;;;62.33;18.92;;;-8.00;99.90;;;;;;5050380;28;20025;-77
2024/01/12 04:09:03;;;;;;;56.92;18.05;;;-7.80;99.90;;;;;;5051135;28;20493;-78
2024/01/12 04:11:32;;;;;;;50.47;17.90;;;-7.80;99.90;;;;;;5033774;28;20017;-77
2024/01/12 04:13:58;;;;;;;61.88;18.98;;;-7.90;99.90;;;;;;5053956;28;20147;-77
2024/01/12 04:16:23;;;;;;;58.70;18.60;;;-8.00;99.90;;;;;;5035062;28;20145;-77
2024/01/12 04:18:49;;;;;;;52.13;17.08;;;-8.00;99.90;;;;;;5053268;28;20029;-77
2024/01/12 04:21:14;;;;;;;61.17;19.30;;;-8.00;99.90;;;;;;5054750;28;20044;-78
2024/01/12 04:23:40;;;;;;;60.78;19.63;;;-8.10;99.90;;;;;;5053973;28;20441;-77
2024/01/12 04:26:06;;;;;;;61.05;18.35;;;-8.10;99.90;;;;;;5052713;28;20558;-78
2024/01/12 04:28:32;;;;;;;55.38;17.88;;;-8.10;99.90;;;;;;5035254;28;20489;-77
2024/01/12 04:31:00;;;;;;;65.53;18.67;;;-8.20;99.90;;;;;;5035253;28;20024;-77
2024/01/12 04:33:26;;;;;;;62.13;19.23;;;-8.30;99.90;;;;;;5053645;28;20036;-77
2024/01/12 04:35:51;;;;;;;57.38;18.17;;;-8.20;99.90;;;;;;5050948;28;20021;-76
2024/01/12 04:38:17;;;;;;;60.67;18.75;;;-8.00;99.90;;;;;;5050478;28;20028;-77
2024/01/12 04:40:43;;;;;;;66.53;18.92;;;-7.90;99.90;;;;;;5035394;28;20140;-77
2024/01/12 04:43:08;;;;;;;55.78;19.45;;;-8.00;99.90;;;;;;5056291;28;20048;-78
2024/01/12 04:45:34;;;;;;;61.35;18.98;;;-8.10;99.90;;;;;;5037750;28;20025;-78
2024/01/12 04:48:00;;;;;;;58.72;19.50;;;-8.30;99.90;;;;;;5036734;28;20024;-76
2024/01/12 04:50:26;;;;;;;49.25;15.75;;;-8.40;99.90;;;;;;5055318;28;20507;-77
2024/01/12 04:52:52;;;;;;;57.33;16.67;;;-8.50;99.90;;;;;;5055134;28;20082;-78
2024/01/12 04:55:18;;;;;;;54.05;16.77;;;-8.40;99.90;;;;;;5053289;28;20374;-78
2024/01/12 04:57:44;;;;;;;68.63;20.48;;;-8.40;99.90;;;;;;5053878;28;20124;-76
2024/01/12 05:00:10;;;;;;;53.10;17.48;;;-8.40;99.90;;;;;;5034286;28;20056;-77
2024/01/12 05:02:36;;;;;;;49.10;17.00;;;-8.40;99.90;;;;;;5049746;28;20066;-76
2024/01/12 05:05:04;;;;;;;52.92;18.08;;;-8.50;99.90;;;;;;5050632;28;20020;-76
2024/01/12 05:07:31;;;;;;;63.28;18.85;;;-8.60;99.90;;;;;;5049711;28;20033;-76
2024/01/12 05:09:56;;;;;;;53.47;17.27;;;-8.50;99.90;;;;;;5029261;28;20033;-76
2024/01/12 05:12:22;;;;;;;55.70;18.88;;;-8.40;99.90;;;;;;5045621;28;20381;-77
2024/01/12 05:14:48;;;;;;;65.95;18.25;;;-8.40;99.90;;;;;;5048156;28;20016;-76
2024/01/12 05:17:14;;;;;;;59.90;20.73;;;-8.40;99.90;;;;;;5049377;28;20513;-78
2024/01/12 05:19:40;;;;;;;53.17;17.17;;;-8.40;99.90;;;;;;5053967;28;20535;-77
2024/01/12 05:22:07;;;;;;;55.72;18.38;;;-8.40;99.90;;;;;;5031842;28;20178;-76
2024/01/12 05:24:33;;;;;;;58.22;18.40;;;-8.50;99.90;;;;;;5032255;28;20040;-77
2024/01/12 05:26:59;;;;;;;61.95;19.30;;;-8.60;99.90;;;;;;5032607;28;20067;-76
2024/01/12 05:29:25;;;;;;;63.58;20.92;;;-8.70;99.90;;;;;;5049862;28;20374;-76
2024/01/12 05:31:50;;;;;;;70.30;18.33;;;-8.60;99.90;;;;;;5049079;28;20056;-76
2024/01/12 05:34:16;;;;;;;52.38;19.45;;;-8.70;99.90;;;;;;5032563;28;20025;-76
2024/01/12 05:36:42;;;;;;;56.63;17.75;;;-8.70;99.90;;;;;;5051236;28;20025;-76
2024/01/12 05:39:08;;;;;;;58.38;19.77;;;-8.80;99.90;;;;;;5049397;28;20048;-76
2024/01/12 05:41:33;;;;;;;60.65;19.30;;;-8.80;99.90;;;;;;5048540;28;20033;-77
2024/01/12 05:43:59;;;;;;;69.80;20.75;;;-8.70;99.90;;;;;;5031297;28;20064;-76
2024/01/12 05:46:25;;;;;;;50.78;18.50;;;-8.60;99.90;;;;;;5049382;28;20029;-76
2024/01/12 05:48:51;;;;;;;59.28;18.73;;;-8.60;99.90;;;;;;5032044;28;20091;-76
2024/01/12 05:51:17;;;;;;;53.72;18.08;;;-8.60;99.90;;;;;;5049998;28;20419;-77
2024/01/12 05:53:42;;;;;;;62.22;18.15;;;-8.60;99.90;;;;;;5049568;28;20029;-76
2024/01/12 05:56:08;;;;;;;62.53;16.95;;;-8.50;99.90;;;;;;5049086;28;20082;-77
2024/01/12 05:58:34;;;;;;;52.15;16.27;;;-8.50;99.90;;;;;;5047737;28;20029;-76
2024/01/12 06:01:00;;;;;;;59.55;18.17;;;-8.40;99.90;;;;;;5031533;28;20488;-77
2024/01/12 06:03:28;;;;;;;57.78;19.20;;;-8.60;99.90;;;;;;5032045;28;20033;-77
2024/01/12 06:05:54;;;;;;;61.10;17.63;;;-8.60;99.90;;;;;;5049394;28;20029;-78
2024/01/12 06:08:20;;;;;;;63.03;19.15;;;-8.60;99.90;;;;;;5031528;28;20029;-76
2024/01/12 06:10:46;;;;;;;51.47;18.67;;;-8.50;99.90;;;;;;5047555;28;20025;-76
2024/01/12 06:13:12;;;;;;;51.92;16.48;;;-8.50;99.90;;;;;;5049558;28;20397;-76
2024/01/12 06:15:37;;;;;;;53.38;18.52;;;-8.60;99.90;;;;;;5031995;28;20074;-77
2024/01/12 06:18:04;;;;;;;60.65;18.60;;;-8.70;99.90;;;;;;5050611;28;20032;-76
2024/01/12 06:20:29;;;;;;;55.13;19.00;;;-8.70;99.90;;;;;;5031821;28;20033;-76
2024/01/12 06:22:55;;;;;;;53.90;17.92;;;-8.60;99.90;;;;;;5031695;28;20053;-78
2024/01/12 06:25:21;;;;;;;66.68;19.52;;;-8.70;99.90;;;;;;5049489;28;20113;-76
2024/01/12 06:27:46;;;;;;;61.95;21.70;;;-8.70;99.90;;;;;;5030641;28;20036;-75
2024/01/12 06:30:12;;;;;;;57.55;19.88;;;-8.80;99.90;;;;;;5047147;28;20021;-76
2024/01/12 06:32:38;;;;;;;60.63;19.50;;;-8.90;99.90;;;;;;5055636;28;20273;-76
2024/01/12 06:35:08;;;;;;;61.00;18.90;;;-9.00;99.90;;;;;;5040170;28;20012;-77
2024/01/12 06:37:34;;;;;;;53.00;17.20;;;-9.00;99.90;;;;;;5050962;28;20188;-75
2024/01/12 06:40:00;;;;;;;56.40;19.75;;;-9.10;99.90;;;;;;5046294;28;20264;-75
2024/01/12 06:42:27;;;;;;;59.30;21.17;;;-9.10;99.90;;;;;;5056878;28;20032;-76
2024/01/12 06:44:54;;;;;;;50.03;18.85;;;-9.20;99.90;;;;;;5036943;28;20340;-76
2024/01/12 06:47:20;;;;;;;57.70;19.98;;;-9.00;99.90;;;;;;5061140;28;20025;-76
2024/01/12 06:49:45;;;;;;;61.78;21.17;;;-8.80;99.90;;;;;;5052730;28;20343;-76
2024/01/12 06:52:12;;;;;;;59.97;19.52;;;-8.60;99.90;;;;;;5065583;28;20093;-78
2024/01/12 06:54:42;;;;;;;53.00;19.35;;;-8.50;99.90;;;;;;5052467;28;20086;-78
2024/01/12 06:57:08;;;;;;;55.53;19.73;;;-8.60;99.90;;;;;;5054687;28;20024;-77
2024/01/12 06:59:34;;;;;;;69.85;22.77;;;-8.60;99.90;;;;;;5034089;28;20484;-77
2024/01/12 07:01:59;;;;;;;59.80;18.67;;;-8.60;99.90;;;;;;5052235;28;20078;-76
2024/01/12 07:04:25;;;;;;;55.05;20.35;;;-8.80;99.90;;;;;;5051720;28;20041;-76
2024/01/12 07:06:52;;;;;;;61.03;18.75;;;-8.90;99.90;;;;;;5051151;28;20032;-78
2024/01/12 07:09:21;;;;;;;53.80;17.85;;;-8.80;99.90;;;;;;5052314;28;20021;-77
2024/01/12 07:11:47;;;;;;;62.08;20.52;;;-8.70;99.90;;;;;;5051462;28;20031;-77
2024/01/12 07:14:16;;;;;;;57.50;19.92;;;-8.70;99.90;;;;;;5041647;28;20121;-77
2024/01/12 07:16:42;;;;;;;55.83;16.90;;;-8.70;99.90;;;;;;5052511;28;20055;-76
2024/01/12 07:19:07;;;;;;;66.20;17.60;;;-8.70;99.90;;;;;;5042724;28;20029;-78
2024/01/12 07:21:34;;;;;;;64.18;20.27;;;-8.70;99.90;;;;;;5034589;28;20057;-77
2024/01/12 07:24:01;;;;;;;60.15;19.75;;;-8.70;99.90;;;;;;5050562;28;20479;-77
2024/01/12 07:26:26;;;;;;;49.50;17.33;;;-8.60;99.90;;;;;;5052235;28;20064;-77
2024/01/12 07:28:52;;;;;;;65.40;20.98;;;-8.60;99.90;;;;;;5033862;28;20076;-77
2024/01/12 07:31:18;;;;;;;59.83;20.92;;;-8.60;99.90;;;;;;5050944;28;20061;-76
2024/01/12 07:33:44;;;;;;;60.35;20.27;;;-8.60;99.90;;;;;;5052783;28;20039;-76
2024/01/12 07:36:10;;;;;;;58.85;18.50;;;-8.60;99.90;;;;;;5053090;28;20041;-78
2024/01/12 07:38:35;;;;;;;61.15;20.75;;;-8.50;99.90;;;;;;5035239;28;20025;-77
2024/01/12 07:41:01;;;;;;;57.40;20.02;;;-8.40;99.90;;;;;;5054149;28;20071;-78
2024/01/12 07:43:27;;;;;;;61.22;20.38;;;-8.30;99.90;;;;;;5055469;28;20041;-76
2024/01/12 07:45:53;;;;;;;59.58;20.52;;;-8.20;99.90;;;;;;5046145;28;20052;-77
2024/01/12 07:48:20;;;;;;;61.47;19.90;;;-8.00;99.90;;;;;;5033940;28;20044;-77
2024/01/12 07:50:46;;;;;;;78.93;21.35;;;-7.90;99.90;;;;;;5042640;28;20032;-77
2024/01/12 07:53:11;;;;;;;66.97;21.83;;;-7.80;99.90;;;;;;5035015;28;20022;-77
2024/01/12 07:55:37;;;;;;;60.25;23.40;;;-7.70;99.90;;;;;;5050903;28;20415;-77
2024/01/12 07:58:04;;;;;;;70.50;21.52;;;-7.60;99.90;;;;;;5053387;28;20021;-78
2024/01/12 08:00:30;;;;;;;62.65;20.65;;;-7.40;99.90;;;;;;5033789;28;20024;-77
2024/01/12 08:02:56;;;;;;;69.63;21.23;;;-7.30;99.90;;;;;;5051549;28;20033;-76
2024/01/12 08:05:22;;;;;;;56.70;18.83;;;-7.20;99.90;;;;;;5052660;28;20506;-76
2024/01/12 08:07:49;;;;;;;56.00;19.52;;;-7.20;99.90;;;;;;5052857;28;20037;-76
2024/01/12 08:10:15;;;;;;;57.47;20.45;;;-7.30;99.90;;;;;;5033979;28;20485;-76
2024/01/12 08:12:41;;;;;;;62.33;21.25;;;-7.40;99.90;;;;;;5052995;28;20052;-76
2024/01/12 08:15:10;;;;;;;59.05;20.27;;;-7.40;99.90;;;;;;5034482;28;20582;-76
2024/01/12 08:17:39;;;;;;;69.65;22.33;;;-7.40;99.90;;;;;;5054473;28;20028;-76
2024/01/12 08:20:05;;;;;;;56.92;19.30;;;-7.30;99.90;;;;;;5053959;28;20386;-76
2024/01/12 08:22:32;;;;;;;59.63;20.02;;;-7.20;99.90;;;;;;5052637;28;20640;-76
2024/01/12 08:24:58;;;;;;;66.13;23.23;;;-7.10;99.90;;;;;;5033422;28;20040;-76
2024/01/12 08:27:24;;;;;;;77.97;23.80;;;-7.00;99.90;;;;;;5050787;28;20036;-77
2024/01/12 08:29:49;;;;;;;69.13;22.48;;;-6.90;99.90;;;;;;5051148;28;20029;-76
2024/01/12 08:32:15;;;;;;;71.78;24.25;;;-6.70;99.90;;;;;;5032400;28;20024;-76
2024/01/12 08:34:41;;;;;;;71.38;22.70;;;-6.60;99.90;;;;;;5032486;28;20493;-75
2024/01/12 08:37:07;;;;;;;73.40;25.80;;;-6.50;99.90;;;;;;5050414;28;20025;-76
2024/01/12 08:39:33;;;;;;;83.65;32.53;;;-6.40;99.90;;;;;;5050094;28;20091;-76
2024/01/12 08:41:59;;;;;;;92.07;31.98;;;-6.30;99.90;;;;;;5032963;28;20397;-76
2024/01/12 08:44:25;;;;;;;99.47;35.33;;;-6.10;99.90;;;;;;5033942;28;20045;-76
2024/01/12 08:46:53;;;;;;;99.78;37.67;;;-5.70;99.90;;;;;;5052080;28;20417;-76
2024/01/12 08:49:20;;;;;;;95.13;32.25;;;-5.50;99.90;;;;;;5051874;28;20363;-76
2024/01/12 08:51:47;;;;;;;89.22;29.77;;;-5.20;99.90;;;;;;5033332;28;20067;-76
2024/01/12 08:54:13;;;;;;;85.80;29.95;;;-5.00;99.90;;;;;;5052628;28;20612;-76
2024/01/12 08:56:39;;;;;;;83.63;29.13;;;-4.70;99.90;;;;;;5048621;28;20485;-77
2024/01/12 08:59:05;;;;;;;72.80;26.88;;;-4.30;99.90;;;;;;5049842;28;20474;-77
2024/01/12 09:01:30;;;;;;;88.10;28.55;;;-3.80;99.90;;;;;;5048824;28;20162;-76
2024/01/12 09:03:56;;;;;;;90.30;33.88;;;-3.40;99.90;;;;;;5048465;28;20029;-76
2024/01/12 09:06:23;;;;;;;218.55;70.32;;;-3.00;99.90;;;;;;5032200;28;20029;-76
2024/01/12 09:08:49;;;;;;;84.80;30.20;;;-2.80;99.90;;;;;;5030865;28;20033;-75
2024/01/12 09:11:15;;;;;;;82.88;29.88;;;-2.60;99.90;;;;;;5030794;28;20044;-76
2024/01/12 09:13:41;;;;;;;78.15;29.52;;;-2.10;99.90;;;;;;5050928;28;20035;-75
2024/01/12 09:16:10;;;;;;;82.57;29.73;;;-2.10;99.90;;;;;;5050270;28;20021;-76
2024/01/12 09:18:36;;;;;;;71.03;26.85;;;-1.90;99.90;;;;;;5031979;28;20021;-76
2024/01/12 09:21:01;;;;;;;77.43;29.02;;;-1.70;99.90;;;;;;5038573;28;20508;-76
2024/01/12 09:23:27;;;;;;;82.35;29.50;;;-1.70;99.90;;;;;;5009544;28;20034;-76
2024/01/12 09:25:54;;;;;;;75.20;27.00;;;-1.80;99.90;;;;;;5009904;28;20034;-76
2024/01/12 09:28:20;;;;;;;78.25;30.33;;;-1.60;99.90;;;;;;5025122;28;20068;-76
2024/01/12 09:30:47;;;;;;;82.55;29.95;;;-1.40;99.90;;;;;;5008792;28;20766;-75
2024/01/12 09:33:13;;;;;;;85.78;29.42;;;-1.40;99.90;;;;;;4992284;28;20036;-76
2024/01/12 09:35:39;;;;;;;82.35;31.02;;;-1.30;99.90;;;;;;5009765;28;20036;-76
2024/01/12 09:38:05;;;;;;;77.15;27.50;;;-1.50;99.90;;;;;;5008517;28;20483;-76
2024/01/12 09:40:31;;;;;;;80.50;29.23;;;-1.50;99.90;;;;;;5003242;28;20030;-75
2024/01/12 09:42:59;;;;;;;78.10;29.25;;;-1.30;99.90;;;;;;5008274;28;20199;-76
2024/01/12 09:45:26;;;;;;;76.40;29.35;;;-1.20;99.90;;;;;;5008287;28;20033;-75
2024/01/12 09:47:52;;;;;;;68.78;27.08;;;-1.30;99.90;;;;;;5008850;28;20087;-77
2024/01/12 09:50:21;;;;;;;78.55;27.23;;;-1.50;99.90;;;;;;5009454;28;20041;-75
2024/01/12 09:52:48;;;;;;;78.35;30.67;;;-1.90;99.90;;;;;;5019826;28;20017;-77
2024/01/12 09:55:14;;;;;;;77.45;28.65;;;-1.00;99.90;;;;;;5008248;28;20072;-76
2024/01/12 09:57:41;;;;;;;76.45;27.95;;;-2.20;99.90;;;;;;5024592;28;20026;-76
2024/01/12 10:00:09;;;;;;;68.05;26.77;;;-2.20;99.90;;;;;;5007729;28;20029;-77
2024/01/12 10:02:35;;;;;;;71.80;26.95;;;-2.10;99.90;;;;;;5008114;28;20045;-76
2024/01/12 10:05:00;;;;;;;74.28;26.65;;;-2.20;99.90;;;;;;5008163;28;20125;-76
2024/01/12 10:07:26;;;;;;;71.25;26.20;;;-2.00;99.90;;;;;;5009795;28;20099;-76
2024/01/12 10:09:53;;;;;;;84.97;26.02;;;-1.60;99.90;;;;;;5024622;28;20081;-76
2024/01/12 10:12:18;;;;;;;79.82;30.05;;;-2.20;99.90;;;;;;5007801;28;20022;-77
2024/01/12 10:14:44;;;;;;;71.10;26.42;;;-1.90;99.90;;;;;;5008048;28;20088;-75
2024/01/12 10:17:11;;;;;;;80.28;29.05;;;-1.30;99.90;;;;;;5009807;28;20101;-75
2024/01/12 10:19:36;;;;;;;80.20;29.08;;;-1.90;99.90;;;;;;5009374;28;20026;-75
2024/01/12 10:22:03;;;;;;;72.80;27.15;;;-2.10;99.90;;;;;;5021168;28;20468;-75
2024/01/12 10:24:30;;;;;;;77.25;27.98;;;-1.90;99.90;;;;;;5028642;28;20458;-75
2024/01/12 10:27:02;;;;;;;76.43;29.00;;;-2.10;99.90;;;;;;5027993;28;20446;-75
2024/01/12 10:29:27;;;;;;;76.93;27.20;;;-2.20;99.90;;;;;;5027752;28;20026;-76
2024/01/12 10:31:53;;;;;;;78.03;27.67;;;-1.50;99.90;;;;;;5027714;28;20029;-75
2024/01/12 10:34:21;;;;;;;77.90;29.15;;;-2.20;99.90;;;;;;5011038;28;20197;-76
2024/01/12 10:36:51;;;;;;;88.47;27.98;;;-2.10;99.90;;;;;;5029870;28;20025;-76
2024/01/12 10:39:19;;;;;;;77.38;29.02;;;-2.10;99.90;;;;;;5027531;28;20033;-77
2024/01/12 10:41:46;;;;;;;79.68;26.77;;;-1.60;99.90;;;;;;5028873;28;20025;-78
2024/01/12 10:44:15;;;;;;;81.20;29.80;;;-1.50;99.90;;;;;;5030897;28;20482;-77
2024/01/12 10:46:51;;;;;;;75.30;28.23;;;-0.80;99.90;;;;;;5029649;28;20075;-76
2024/01/12 10:49:23;;;;;;;74.97;30.50;;;-1.00;99.90;;;;;;5029843;28;20097;-75
2024/01/12 10:52:12;;;;;;;83.25;32.72;;;-1.80;99.90;;;;;;5028501;28;20172;-77
2024/01/12 10:54:46;;;;;;;91.40;31.80;;;-2.20;99.90;;;;;;5019938;28;20559;-77
2024/01/12 10:57:12;;;;;;;95.30;31.95;;;-2.30;99.90;;;;;;5044196;28;20560;-76
2024/01/12 10:59:38;;;;;;;78.57;27.90;;;-2.10;99.90;;;;;;5035407;28;20018;-77
2024/01/12 11:02:05;;;;;;;69.70;25.13;;;-2.00;99.90;;;;;;5033223;28;20036;-76
2024/01/12 11:04:31;;;;;;;84.18;31.55;;;-2.00;99.90;;;;;;5050805;28;20044;-75
2024/01/12 11:07:00;;;;;;;75.90;29.50;;;-1.30;99.90;;;;;;5029155;28;20112;-79
2024/01/12 11:09:27;;;;;;;79.43;26.38;;;-2.20;99.90;;;;;;5027152;28;20108;-76
2024/01/12 11:12:02;;;;;;;65.85;24.52;;;-2.10;99.90;;;;;;5026763;28;20120;-76
2024/01/12 11:14:29;;;;;;;74.05;26.80;;;-1.90;99.90;;;;;;5010764;28;20029;-76
2024/01/12 11:16:55;;;;;;;67.53;24.33;;;-0.90;99.90;;;;;;5029273;28;20028;-76
2024/01/12 11:19:21;;;;;;;74.85;28.05;;;-1.50;99.90;;;;;;5027586;28;20381;-76
2024/01/12 11:21:46;;;;;;;78.18;29.92;;;-1.10;99.90;;;;;;5000883;28;20447;-76
2024/01/12 11:24:13;;;;;;;83.32;27.17;;;-1.70;99.90;;;;;;4992535;28;20044;-76
2024/01/12 11:26:41;;;;;;;62.28;23.63;;;-0.40;99.90;;;;;;5011597;28;20109;-76
2024/01/12 11:29:17;;;;;;;67.72;25.35;;;-1.70;99.90;;;;;;5015409;28;20029;-76
2024/01/12 11:31:51;;;;;;;79.40;27.17;;;-1.30;99.90;;;;;;5011182;28;20034;-76
2024/01/12 11:34:18;;;;;;;83.40;29.58;;;-1.70;99.90;;;;;;5012026;28;20413;-76
2024/01/12 11:36:43;;;;;;;66.22;22.58;;;-1.90;99.90;;;;;;5011695;28;20025;-77
2024/01/12 11:39:12;;;;;;;67.53;26.35;;;-0.90;99.90;;;;;;5011182;28;20026;-76
2024/01/12 11:41:43;;;;;;;66.15;22.63;;;-1.30;99.90;;;;;;5010431;28;20084;-77
2024/01/12 11:44:09;;;;;;;35.85;15.05;;;-1.70;99.90;;;;;;5010634;28;20064;-76
2024/01/12 11:46:35;;;;;;;66.55;23.48;;;-1.90;99.90;;;;;;5010566;28;20467;-76
2024/01/12 11:49:04;;;;;;;67.15;22.45;;;-2.00;99.90;;;;;;5010276;28;20037;-76
2024/01/12 11:51:30;;;;;;;77.47;29.58;;;-1.70;99.90;;;;;;5011718;28;20026;-76
2024/01/12 11:53:58;;;;;;;70.55;27.13;;;-1.30;99.90;;;;;;5026984;28;20390;-76
2024/01/12 11:56:26;;;;;;;54.05;18.90;;;-2.00;99.90;;;;;;5010087;28;20037;-76
2024/01/12 11:58:52;;;;;;;71.38;27.67;;;-2.00;99.90;;;;;;5011610;28;20386;-76
2024/01/12 12:01:19;;;;;;;71.88;27.15;;;-0.90;99.90;;;;;;5011527;28;20547;-76
2024/01/12 12:03:45;;;;;;;63.33;21.13;;;-1.70;99.90;;;;;;5011462;28;20046;-76
2024/01/12 12:06:12;;;;;;;71.75;26.13;;;-1.70;99.90;;;;;;5012058;28;20505;-76
2024/01/12 12:08:42;;;;;;;72.75;28.73;;;-1.70;99.90;;;;;;5010405;28;20034;-76
2024/01/12 12:11:08;;;;;;;73.40;25.15;;;-1.90;99.90;;;;;;5026955;28;20121;-75
2024/01/12 12:13:34;;;;;;;71.55;27.90;;;-2.10;99.90;;;;;;5009971;28;20124;-77
2024/01/12 12:16:01;;;;;;;76.47;28.98;;;-2.20;99.90;;;;;;5010106;28;20022;-76
2024/01/12 12:18:27;;;;;;;91.70;34.42;;;-2.30;99.90;;;;;;5011358;28;20034;-76
2024/01/12 12:20:52;;;;;;;72.10;28.67;;;-2.50;99.90;;;;;;5019683;28;20088;-77
2024/01/12 12:23:18;;;;;;;74.03;29.75;;;-2.00;99.90;;;;;;5051132;28;20187;-79